Merritt Island, FL (32953)

5:34 AM EST on February 07, 2016 (GMT -0500)
Sunset Lakes | | Change Station
CLOSE
Current Station
Personal Weather Station
Location: Merritt Island, FL
Elevation: 35 ft
Nearby Weather Stations
Active Advisory: Lake Wind Advisory

Elev 35 ft 28.43 °N, 80.71 °W | Updated 1 minute ago

Overcast
Overcast
47.5 °F
Feels Like 43 °F
N
10.0
Wind Variable Wind from WNW
Gusts 16.0 mph

Today
High -- | Low -- °F
--% Chance of Precip.
Yesterday
High -- | Low -- °F
Precip. -- in
Pressure 29.92 in
Visibility 10.0 miles
Clouds Overcast 800 ft
Windchill 43 °F
Dew Point 45 °F
Humidity 92%
Rainfall Not available.
Snow Depth Not available.
7:07 AM 6:07 PM
Waning Crescent, 2% visible
METAR KXMR 070958Z AUTO 29016KT 10SM OVC008 09/07 A2991 RMK AO2 PK WND 29027/31 SLP132 T00850072 $
Pressure 29.92 in
Visibility 10.0 miles
Clouds Overcast 800 ft
Windchill 43 °F
Dew Point 45 °F
Humidity 92%
Rainfall Not available.
Snow Depth Not available.
7:07 AM 6:07 PM
Waning Crescent, 2% visible
METAR KXMR 070958Z AUTO 29016KT 10SM OVC008 09/07 A2991 RMK AO2 PK WND 29027/31 SLP132 T00850072 $

10-Day Weather Forecast

Almanac

Astronomy

Feb. 07, 2016 Rise Set
Actual Time
Civil Twilight
Nautical Twilight
Astronomical Twilight
Moon
Length of Visible Light
Length of Day
Tomorrow will be .
, % of the Moon is Illuminated

Today's Extremes

State Highs State Lows

Community

WunderPhotos

Upload Photos

1,891,171 photos uploaded!

WunderBlog® & News

Nearby

Air Quality

  Air Quality AQ Index Pollutant
Not available.

Snow Depth

Station Depth Elevation

Earthquake Activity

City Distance Mag. Time & Date
Minimum magnitude displayed is 2.5.

Coastal Water Temperatures

Place Temperature

Stations

Nearby Weather Stations

Station Location Temp. Windchill Dew Point Humidity Wind Precip. Elev Updated Type
                   

Watches & Warnings

Lake Wind Advisory
Issued: 3:47 AM EST Feb. 7, 2016 – National Weather Service

... Lake Wind Advisory in effect until 6 PM EST this evening...

The National Weather Service in Melbourne has issued a lake Wind
Advisory... which is in effect until 6 PM EST this evening.

* Winds... northwest winds around 20 mph today with gusts up to 30
to 35 mph.

* Impacts... choppy conditions on Open Lakes and other larger
bodies of water will make operation of small boats potentially
hazardous.

Precautionary/preparedness actions...

A lake Wind Advisory indicates that winds will cause rough chop
on area lakes. Small boats will be especially prone to capsizing.



Weitlich